createdAt,value
2023-01-13T00:01:32.739Z,4.90
2023-01-13T00:04:00.278Z,5.68
2023-01-13T00:06:27.043Z,5.66
2023-01-13T00:08:54.460Z,5.55
2023-01-13T00:11:21.717Z,5.31
2023-01-13T00:13:48.331Z,5.15
2023-01-13T00:16:17.131Z,5.35
2023-01-13T00:18:44.189Z,5.05
2023-01-13T00:21:19.683Z,5.57
2023-01-13T00:23:46.951Z,5.45
2023-01-13T00:26:19.682Z,4.81
2023-01-13T00:28:46.701Z,5.71
2023-01-13T00:31:20.019Z,5.68
2023-01-13T00:33:46.728Z,5.79
2023-01-13T00:36:15.070Z,5.20
2023-01-13T00:38:43.057Z,5.31
2023-01-13T00:41:17.804Z,5.52
2023-01-13T00:43:44.419Z,5.69
2023-01-13T00:46:12.995Z,5.75
2023-01-13T00:48:39.989Z,5.72
2023-01-13T00:51:11.160Z,5.37
2023-01-13T00:53:40.044Z,4.53
2023-01-13T00:56:14.332Z,4.98
2023-01-13T00:58:41.826Z,4.69
2023-01-13T01:01:15.178Z,5.03
2023-01-13T01:03:41.778Z,4.66
2023-01-13T01:06:12.886Z,4.49
2023-01-13T01:08:40.361Z,4.73
2023-01-13T01:11:29.153Z,4.36
2023-01-13T01:13:57.763Z,4.36
2023-01-13T01:16:26.700Z,3.99
2023-01-13T01:18:54.589Z,4.36
2023-01-13T01:21:23.000Z,4.55
2023-01-13T01:23:49.705Z,4.22
2023-01-13T01:26:19.602Z,4.14
2023-01-13T01:28:46.614Z,3.97
2023-01-13T01:31:25.475Z,3.93
2023-01-13T01:33:53.746Z,3.63
2023-01-13T01:36:22.206Z,4.03
2023-01-13T01:38:49.691Z,3.89
2023-01-13T01:41:22.452Z,3.78
2023-01-13T01:44:02.744Z,2.94
2023-01-13T01:46:43.836Z,3.64
2023-01-13T01:49:25.664Z,3.86
2023-01-13T01:52:01.635Z,1.54
2023-01-13T01:54:36.843Z,3.83
2023-01-13T01:57:03.998Z,4.22
2023-01-13T01:59:35.267Z,4.15
2023-01-13T02:02:02.460Z,4.08
2023-01-13T02:04:36.378Z,3.93
2023-01-13T02:07:03.989Z,4.16
2023-01-13T02:09:31.179Z,4.11
2023-01-13T02:12:16.242Z,3.91
2023-01-13T02:14:44.197Z,4.23
2023-01-13T02:17:10.715Z,4.52
2023-01-13T02:20:09.761Z,4.68
2023-01-13T02:22:49.128Z,4.40
2023-01-13T02:25:18.669Z,4.52
2023-01-13T02:27:56.394Z,4.66
2023-01-13T02:30:59.949Z,4.93
2023-01-13T02:34:01.511Z,5.04
2023-01-13T02:36:34.722Z,5.00
2023-01-13T02:39:16.278Z,5.05
2023-01-13T02:42:08.775Z,5.17
2023-01-13T02:44:48.498Z,4.74
2023-01-13T02:47:22.817Z,5.07
2023-01-13T02:49:52.815Z,5.15
2023-01-13T02:52:32.870Z,5.20
2023-01-13T02:55:05.719Z,5.24
2023-01-13T02:57:35.360Z,4.95
2023-01-13T03:00:04.691Z,5.25
2023-01-13T03:02:31.456Z,5.32
2023-01-13T03:05:00.203Z,5.10
2023-01-13T03:07:45.463Z,5.14
2023-01-13T03:10:44.338Z,4.68
2023-01-13T03:13:36.508Z,4.11
2023-01-13T03:16:27.994Z,4.42
2023-01-13T03:19:16.053Z,4.05
2023-01-13T03:22:01.525Z,3.48
2023-01-13T03:24:40.119Z,2.71
2023-01-13T03:27:38.789Z,4.11
2023-01-13T03:30:12.576Z,3.81
2023-01-13T03:32:43.647Z,3.74
2023-01-13T03:35:19.089Z,3.81
2023-01-13T03:37:55.886Z,4.28
2023-01-13T03:40:29.063Z,4.30
2023-01-13T03:43:27.492Z,4.55
2023-01-13T03:45:59.918Z,4.77
2023-01-13T03:48:30.468Z,4.93
2023-01-13T03:51:04.996Z,4.89
2023-01-13T03:53:48.233Z,5.00
2023-01-13T03:56:27.132Z,5.12
2023-01-13T03:58:54.504Z,5.14
2023-01-13T04:01:32.455Z,5.22
2023-01-13T04:04:12.703Z,4.92
2023-01-13T04:07:06.828Z,4.87
2023-01-13T04:09:55.815Z,5.03
2023-01-13T04:12:51.480Z,4.91
2023-01-13T04:15:21.863Z,5.12
2023-01-13T04:17:48.442Z,5.05
2023-01-13T04:20:15.425Z,3.97
2023-01-13T04:22:42.154Z,4.17
2023-01-13T04:25:09.806Z,4.37
2023-01-13T04:27:36.342Z,4.21
2023-01-13T04:30:04.200Z,3.89
2023-01-13T04:32:30.807Z,3.76
2023-01-13T04:34:57.798Z,3.57
2023-01-13T04:37:24.375Z,3.67
2023-01-13T04:39:50.980Z,4.13
2023-01-13T04:42:17.566Z,4.38
2023-01-13T04:44:44.224Z,4.52
2023-01-13T04:47:10.780Z,4.49
2023-01-13T04:49:37.326Z,4.72
2023-01-13T04:52:04.148Z,4.71
2023-01-13T04:54:30.839Z,4.41
2023-01-13T04:56:57.556Z,4.51
2023-01-13T04:59:24.124Z,4.23
2023-01-13T05:01:50.859Z,4.38
2023-01-13T05:04:17.521Z,4.99
2023-01-13T05:06:44.167Z,5.05
2023-01-13T05:09:12.451Z,4.92
2023-01-13T05:11:58.054Z,4.06
2023-01-13T05:14:42.989Z,4.56
2023-01-13T05:17:19.958Z,4.18
2023-01-13T05:19:47.456Z,4.33
2023-01-13T05:22:32.971Z,4.36
2023-01-13T05:25:18.223Z,3.29
2023-01-13T05:27:44.961Z,4.04
2023-01-13T05:30:12.046Z,3.66
2023-01-13T05:32:38.575Z,2.78
2023-01-13T05:35:05.872Z,3.38
2023-01-13T05:37:32.587Z,3.53
2023-01-13T05:40:17.697Z,3.22
2023-01-13T05:43:03.027Z,3.60
2023-01-13T05:45:32.641Z,3.51
2023-01-13T05:47:59.355Z,3.77
2023-01-13T05:50:25.991Z,3.69
2023-01-13T05:52:52.632Z,3.08
2023-01-13T05:55:19.276Z,3.28
2023-01-13T05:57:45.889Z,3.25
2023-01-13T06:00:12.901Z,3.50
2023-01-13T06:02:39.526Z,3.54
2023-01-13T06:05:06.380Z,3.69
2023-01-13T06:07:32.967Z,3.53
2023-01-13T06:09:59.597Z,4.17
2023-01-13T06:12:26.291Z,4.28
2023-01-13T06:14:52.966Z,4.40
2023-01-13T06:17:19.553Z,4.61
2023-01-13T06:19:46.297Z,4.33
2023-01-13T06:22:17.457Z,4.39
2023-01-13T06:24:46.225Z,4.68
2023-01-13T06:27:13.308Z,4.72
2023-01-13T06:29:39.947Z,4.55
2023-01-13T06:32:13.038Z,4.63
2023-01-13T06:34:41.616Z,4.75
2023-01-13T06:37:08.232Z,4.11
2023-01-13T06:39:35.966Z,4.17
2023-01-13T06:42:22.166Z,4.72
2023-01-13T06:44:49.284Z,4.48
2023-01-13T06:47:16.166Z,4.76
2023-01-13T06:49:42.832Z,4.75
2023-01-13T06:52:09.433Z,4.79
2023-01-13T06:54:36.247Z,4.69
2023-01-13T06:57:03.671Z,4.74
2023-01-13T06:59:30.349Z,4.49
2023-01-13T07:01:57.077Z,4.78
2023-01-13T07:04:24.029Z,4.65
2023-01-13T07:06:50.641Z,4.69
2023-01-13T07:09:17.295Z,4.64
2023-01-13T07:11:43.976Z,4.65
2023-01-13T07:14:29.180Z,4.69
2023-01-13T07:16:55.827Z,4.61
2023-01-13T07:19:24.009Z,4.50
2023-01-13T07:21:53.786Z,4.60
2023-01-13T07:24:20.925Z,4.75
2023-01-13T07:26:47.545Z,4.58
2023-01-13T07:29:16.677Z,4.05
2023-01-13T07:31:43.414Z,4.62
2023-01-13T07:34:12.171Z,4.90
2023-01-13T07:36:39.369Z,4.97
2023-01-13T07:39:06.372Z,4.83
2023-01-13T07:41:51.633Z,4.97
2023-01-13T07:44:18.238Z,4.76
2023-01-13T07:46:44.972Z,4.19
2023-01-13T07:49:11.674Z,4.88
2023-01-13T07:51:39.444Z,5.32
2023-01-13T07:54:06.672Z,5.26
2023-01-13T07:56:33.442Z,5.63
2023-01-13T07:59:01.119Z,5.09
2023-01-13T08:01:28.457Z,5.87
2023-01-13T08:03:56.317Z,5.93
2023-01-13T08:06:23.460Z,5.56
2023-01-13T08:08:50.552Z,6.04
2023-01-13T08:11:17.968Z,6.23
2023-01-13T08:13:45.339Z,6.40
2023-01-13T08:16:14.458Z,6.42
2023-01-13T08:18:42.154Z,6.28
2023-01-13T08:21:11.854Z,6.06
2023-01-13T08:23:39.219Z,5.96
2023-01-13T08:26:09.414Z,4.60
2023-01-13T08:28:36.679Z,5.66
2023-01-13T08:31:05.912Z,5.61
2023-01-13T08:33:33.514Z,6.11
2023-01-13T08:36:06.777Z,6.34
2023-01-13T08:38:34.610Z,6.18
2023-01-13T08:41:01.957Z,5.92
2023-01-13T08:43:28.644Z,5.98
2023-01-13T08:46:04.556Z,6.17
2023-01-13T08:48:31.819Z,6.07
2023-01-13T08:51:07.003Z,6.38
2023-01-13T08:53:33.771Z,6.58
2023-01-13T08:56:00.511Z,6.34
2023-01-13T08:58:27.222Z,6.27
2023-01-13T09:00:53.883Z,5.36
2023-01-13T09:03:20.594Z,6.47
2023-01-13T09:05:47.291Z,6.21
2023-01-13T09:08:13.928Z,7.01
2023-01-13T09:10:40.664Z,6.96
2023-01-13T09:13:12.463Z,7.35
2023-01-13T09:15:44.487Z,7.57
2023-01-13T09:18:12.267Z,7.67
2023-01-13T09:20:39.399Z,7.50
2023-01-13T09:23:09.857Z,7.96
2023-01-13T09:25:37.063Z,7.95
2023-01-13T09:28:08.595Z,7.92
2023-01-13T09:30:37.272Z,8.70
2023-01-13T09:33:22.375Z,8.98
2023-01-13T09:35:48.962Z,9.12
2023-01-13T09:38:15.519Z,9.32
2023-01-13T09:40:43.964Z,9.39
2023-01-13T09:43:53.555Z,9.51
2023-01-13T09:46:42.773Z,9.53
2023-01-13T09:49:22.690Z,9.79
2023-01-13T09:51:57.834Z,9.99
2023-01-13T09:54:58.085Z,10.02
2023-01-13T09:57:26.824Z,10.09
2023-01-13T09:59:53.440Z,10.13
2023-01-13T10:02:40.094Z,10.03
2023-01-13T10:05:50.265Z,10.13
2023-01-13T10:08:24.684Z,10.15
2023-01-13T10:10:58.456Z,10.28
2023-01-13T10:13:30.684Z,10.29
2023-01-13T10:16:14.249Z,10.06
2023-01-13T10:18:59.310Z,9.86
2023-01-13T10:21:57.620Z,10.00
2023-01-13T10:24:52.279Z,10.23
2023-01-13T10:27:35.164Z,10.22
2023-01-13T10:30:18.011Z,10.32
2023-01-13T10:32:52.242Z,10.16
2023-01-13T10:35:18.901Z,10.32
2023-01-13T10:37:57.469Z,10.36
2023-01-13T10:40:24.041Z,10.07
2023-01-13T10:43:06.547Z,7.32
2023-01-13T10:45:33.284Z,9.63
2023-01-13T10:48:10.400Z,9.72
2023-01-13T10:50:38.652Z,9.89
2023-01-13T10:53:22.826Z,9.75
2023-01-13T10:56:02.131Z,9.65
2023-01-13T10:58:29.385Z,9.90
2023-01-13T11:01:05.286Z,10.10
2023-01-13T11:03:43.177Z,9.36
2023-01-13T11:06:19.058Z,8.85
2023-01-13T11:08:49.388Z,9.32
2023-01-13T11:11:47.489Z,9.03
2023-01-13T11:14:37.023Z,8.93
2023-01-13T11:17:12.330Z,8.99
2023-01-13T11:19:44.613Z,9.40
2023-01-13T11:22:23.491Z,9.69
2023-01-13T11:25:01.543Z,9.73
2023-01-13T11:27:56.115Z,9.82
2023-01-13T11:30:56.235Z,10.20
2023-01-13T11:33:41.764Z,10.42
2023-01-13T11:36:21.057Z,10.29
2023-01-13T11:38:54.244Z,10.52
2023-01-13T11:41:25.151Z,10.41
2023-01-13T11:43:59.240Z,9.94
2023-01-13T11:46:28.926Z,10.31
2023-01-13T11:48:56.627Z,10.22
2023-01-13T11:51:38.852Z,10.49
2023-01-13T11:54:24.364Z,10.61
2023-01-13T11:57:27.971Z,10.47
2023-01-13T12:00:11.037Z,10.40
2023-01-13T12:02:40.199Z,10.19
2023-01-13T12:05:06.758Z,9.38
2023-01-13T12:07:58.430Z,9.12
2023-01-13T12:10:49.974Z,8.87
2023-01-13T12:13:35.268Z,8.96
2023-01-13T12:16:26.744Z,9.18
2023-01-13T12:19:21.358Z,9.07
2023-01-13T12:22:08.816Z,8.95
2023-01-13T12:24:44.654Z,8.74
2023-01-13T12:27:37.696Z,9.14
2023-01-13T12:30:13.244Z,9.06
2023-01-13T12:32:41.260Z,9.43
2023-01-13T12:35:23.332Z,9.67
2023-01-13T12:38:13.392Z,9.26
2023-01-13T12:41:02.968Z,9.88
2023-01-13T12:43:48.667Z,9.47
2023-01-13T12:46:24.676Z,10.08
2023-01-13T12:48:53.032Z,10.12
2023-01-13T12:51:33.395Z,10.20
2023-01-13T12:54:41.496Z,10.25
2023-01-13T12:57:36.745Z,10.17
2023-01-13T13:00:03.305Z,10.26
2023-01-13T13:02:34.293Z,10.03
2023-01-13T13:05:23.145Z,10.02
2023-01-13T13:08:01.031Z,9.64
2023-01-13T13:10:34.035Z,9.21
2023-01-13T13:13:18.197Z,8.61
2023-01-13T13:15:47.239Z,9.47
2023-01-13T13:18:16.902Z,9.72
2023-01-13T13:21:05.261Z,9.81
2023-01-13T13:23:43.613Z,9.83
2023-01-13T13:26:20.166Z,9.83
2023-01-13T13:29:28.211Z,9.37
2023-01-13T13:32:07.201Z,9.07
2023-01-13T13:35:08.197Z,8.98
2023-01-13T13:38:05.534Z,8.84
2023-01-13T13:40:58.089Z,8.75
2023-01-13T13:43:44.104Z,8.83
2023-01-13T13:46:44.278Z,9.02
2023-01-13T13:49:12.115Z,8.65
2023-01-13T13:52:00.369Z,8.73
2023-01-13T13:54:27.894Z,8.65
2023-01-13T13:56:54.645Z,8.58
2023-01-13T13:59:27.628Z,8.76
2023-01-13T14:02:01.741Z,8.93
2023-01-13T14:04:35.610Z,9.11
2023-01-13T14:07:16.143Z,8.56
2023-01-13T14:09:46.306Z,9.29
2023-01-13T14:12:22.043Z,9.29
2023-01-13T14:14:49.695Z,9.32
2023-01-13T14:17:22.609Z,9.29
2023-01-13T14:20:16.643Z,9.30
2023-01-13T14:22:47.282Z,9.31
2023-01-13T14:25:39.743Z,9.05
2023-01-13T14:28:28.496Z,9.09
2023-01-13T14:30:56.521Z,9.05
2023-01-13T14:33:29.248Z,8.67
2023-01-13T14:36:07.175Z,8.82
2023-01-13T14:38:33.896Z,9.01
2023-01-13T14:41:15.424Z,9.06
2023-01-13T14:43:44.799Z,9.02
2023-01-13T14:46:11.848Z,8.64
2023-01-13T14:48:39.570Z,8.63
2023-01-13T14:51:10.918Z,8.04
2023-01-13T14:53:46.952Z,8.88
2023-01-13T14:56:40.331Z,8.86
2023-01-13T14:59:47.489Z,8.83
2023-01-13T15:02:59.554Z,8.57
2023-01-13T15:05:26.184Z,8.85
2023-01-13T15:08:01.743Z,8.70
2023-01-13T15:10:33.697Z,8.66
2023-01-13T15:13:04.295Z,8.59
2023-01-13T15:15:36.513Z,8.20
2023-01-13T15:18:12.536Z,8.14
2023-01-13T15:20:40.294Z,8.44
2023-01-13T15:23:06.869Z,7.92
2023-01-13T15:25:41.331Z,8.47
2023-01-13T15:28:21.971Z,8.43
2023-01-13T15:30:50.438Z,8.50
2023-01-13T15:33:18.062Z,8.50
2023-01-13T15:35:47.886Z,5.33
2023-01-13T15:38:16.987Z,8.36
2023-01-13T15:40:44.094Z,8.34
2023-01-13T15:43:34.351Z,8.29
2023-01-13T15:46:21.223Z,7.99
2023-01-13T15:48:50.119Z,7.46
2023-01-13T15:51:21.248Z,8.16
2023-01-13T15:53:47.802Z,8.13
2023-01-13T15:56:36.249Z,7.42
2023-01-13T15:59:04.676Z,7.39
2023-01-13T16:01:31.525Z,7.79
2023-01-13T16:03:58.147Z,7.14
2023-01-13T16:06:29.961Z,7.82
2023-01-13T16:08:56.578Z,8.01
2023-01-13T16:11:23.154Z,8.09
2023-01-13T16:13:49.782Z,7.79
2023-01-13T16:16:23.348Z,8.02
2023-01-13T16:18:51.105Z,7.71
2023-01-13T16:21:21.600Z,8.10
2023-01-13T16:23:49.784Z,8.08
2023-01-13T16:26:27.104Z,8.14
2023-01-13T16:28:55.777Z,7.88
2023-01-13T16:31:32.273Z,7.84
2023-01-13T16:34:01.038Z,8.30
2023-01-13T16:36:29.473Z,8.20
2023-01-13T16:38:57.018Z,7.74
2023-01-13T16:41:25.022Z,7.57
2023-01-13T16:43:52.411Z,7.62
2023-01-13T16:46:21.009Z,7.69
2023-01-13T16:48:48.691Z,7.61
2023-01-13T16:51:15.490Z,7.15
2023-01-13T16:53:42.126Z,7.12
2023-01-13T16:56:30.204Z,7.54
2023-01-13T16:58:59.318Z,7.25
2023-01-13T17:01:31.976Z,7.34
2023-01-13T17:03:59.357Z,7.37
2023-01-13T17:06:41.784Z,7.37
2023-01-13T17:09:14.412Z,7.30
2023-01-13T17:11:41.118Z,7.13
2023-01-13T17:14:19.181Z,7.19
2023-01-13T17:16:46.999Z,7.16
2023-01-13T17:19:14.367Z,7.16
2023-01-13T17:21:42.375Z,7.08
2023-01-13T17:24:10.697Z,7.01
2023-01-13T17:26:42.122Z,7.10
2023-01-13T17:29:12.867Z,7.12
2023-01-13T17:31:39.545Z,7.05
2023-01-13T17:34:06.129Z,7.11
2023-01-13T17:36:33.121Z,7.09
2023-01-13T17:38:59.780Z,6.85
2023-01-13T17:41:26.744Z,7.05
2023-01-13T17:43:53.896Z,6.32
2023-01-13T17:46:23.085Z,7.08
2023-01-13T17:48:53.705Z,7.15
2023-01-13T17:51:22.665Z,6.81
2023-01-13T17:53:49.338Z,7.22
2023-01-13T17:56:16.888Z,7.26
2023-01-13T17:58:45.531Z,6.86
2023-01-13T18:01:18.773Z,7.11
2023-01-13T18:03:45.702Z,7.10
2023-01-13T18:06:22.155Z,6.96
2023-01-13T18:08:49.778Z,6.04
2023-01-13T18:11:19.041Z,7.02
2023-01-13T18:13:48.073Z,7.02
2023-01-13T18:16:17.630Z,7.15
2023-01-13T18:18:46.434Z,6.58
2023-01-13T18:21:43.994Z,6.86
2023-01-13T18:24:34.954Z,6.31
2023-01-13T18:27:22.803Z,6.31
2023-01-13T18:29:56.654Z,6.21
2023-01-13T18:32:26.544Z,6.32
2023-01-13T18:35:04.844Z,6.23
2023-01-13T18:37:32.641Z,6.66
2023-01-13T18:39:59.597Z,6.78
2023-01-13T18:42:44.816Z,6.22
2023-01-13T18:45:11.790Z,6.89
2023-01-13T18:47:40.870Z,6.69
2023-01-13T18:50:08.793Z,6.97
2023-01-13T18:52:36.586Z,6.76
2023-01-13T18:55:04.059Z,6.44
2023-01-13T18:57:32.141Z,6.03
2023-01-13T19:00:00.031Z,6.07
2023-01-13T19:02:28.590Z,5.94
2023-01-13T19:04:55.962Z,5.81
2023-01-13T19:07:26.949Z,6.14
2023-01-13T19:09:59.434Z,6.22
2023-01-13T19:12:28.173Z,6.40
2023-01-13T19:14:56.517Z,6.39
2023-01-13T19:17:26.507Z,6.29
2023-01-13T19:19:56.135Z,6.31
2023-01-13T19:22:30.183Z,6.38
2023-01-13T19:24:58.266Z,3.96
2023-01-13T19:27:28.167Z,6.36
2023-01-13T19:29:58.429Z,6.44
2023-01-13T19:32:27.477Z,6.48
2023-01-13T19:34:56.391Z,6.58
2023-01-13T19:37:23.118Z,6.03
2023-01-13T19:39:50.934Z,6.73
2023-01-13T19:42:36.686Z,6.85
2023-01-13T19:45:22.118Z,6.88
2023-01-13T19:47:49.706Z,6.87
2023-01-13T19:50:17.384Z,6.91
2023-01-13T19:52:44.814Z,6.89
2023-01-13T19:55:13.658Z,6.29
2023-01-13T19:57:41.297Z,6.94
2023-01-13T20:00:09.969Z,6.99
2023-01-13T20:02:37.239Z,7.16
2023-01-13T20:05:07.799Z,7.07
2023-01-13T20:07:35.824Z,7.18
2023-01-13T20:10:03.234Z,7.20
2023-01-13T20:12:30.795Z,7.19
2023-01-13T20:14:59.060Z,7.31
2023-01-13T20:17:27.139Z,7.17
2023-01-13T20:19:54.939Z,7.14
2023-01-13T20:22:21.883Z,7.36
2023-01-13T20:24:52.980Z,7.23
2023-01-13T20:27:20.583Z,7.30
2023-01-13T20:29:47.754Z,7.22
2023-01-13T20:32:15.749Z,7.10
2023-01-13T20:34:43.071Z,6.58
2023-01-13T20:37:10.661Z,7.02
2023-01-13T20:39:37.977Z,7.08
2023-01-13T20:42:23.237Z,7.20
2023-01-13T20:44:50.092Z,7.24
2023-01-13T20:47:17.346Z,7.12
2023-01-13T20:49:44.310Z,6.75
2023-01-13T20:52:10.947Z,7.00
2023-01-13T20:54:38.707Z,6.43
2023-01-13T20:57:06.866Z,6.86
2023-01-13T20:59:34.029Z,6.46
2023-01-13T21:02:01.075Z,6.82
2023-01-13T21:04:28.137Z,6.72
2023-01-13T21:06:56.253Z,6.69
2023-01-13T21:09:24.407Z,5.75
2023-01-13T21:12:09.782Z,6.76
2023-01-13T21:14:54.911Z,6.23
2023-01-13T21:17:40.438Z,6.80
2023-01-13T21:20:09.947Z,6.58
2023-01-13T21:22:36.620Z,6.75
2023-01-13T21:25:04.798Z,6.74
2023-01-13T21:27:32.021Z,6.77
2023-01-13T21:29:58.648Z,6.13
2023-01-13T21:32:26.032Z,6.62
2023-01-13T21:34:52.650Z,6.76
2023-01-13T21:37:19.228Z,6.80
2023-01-13T21:39:45.797Z,6.78
2023-01-13T21:42:34.586Z,6.80
2023-01-13T21:45:20.152Z,6.79
2023-01-13T21:47:49.965Z,6.85
2023-01-13T21:50:18.131Z,6.85
2023-01-13T21:52:45.015Z,6.83
2023-01-13T21:55:24.692Z,6.86
2023-01-13T21:57:55.176Z,6.87
2023-01-13T22:00:24.377Z,6.82
2023-01-13T22:02:51.322Z,6.71
2023-01-13T22:05:20.374Z,6.89
2023-01-13T22:07:47.650Z,6.55
2023-01-13T22:10:17.099Z,6.33
2023-01-13T22:12:43.809Z,6.16
2023-01-13T22:15:15.307Z,6.46
2023-01-13T22:17:42.783Z,6.33
2023-01-13T22:20:11.382Z,6.44
2023-01-13T22:22:39.038Z,5.77
2023-01-13T22:25:08.932Z,6.13
2023-01-13T22:27:41.172Z,5.91
2023-01-13T22:30:21.694Z,6.29
2023-01-13T22:32:48.804Z,6.29
2023-01-13T22:35:15.796Z,6.37
2023-01-13T22:37:43.377Z,6.39
2023-01-13T22:40:11.964Z,6.35
2023-01-13T22:42:40.451Z,6.08
2023-01-13T22:45:10.519Z,6.09
2023-01-13T22:47:37.106Z,6.57
2023-01-13T22:50:05.127Z,6.19
2023-01-13T22:52:33.589Z,6.35
2023-01-13T22:55:00.874Z,6.53
2023-01-13T22:57:36.634Z,6.51
2023-01-13T23:00:10.400Z,6.47
2023-01-13T23:02:38.527Z,6.52
2023-01-13T23:05:05.565Z,6.18
2023-01-13T23:07:32.157Z,6.18
2023-01-13T23:09:58.727Z,6.40
2023-01-13T23:12:25.383Z,6.62
2023-01-13T23:14:51.933Z,6.58
2023-01-13T23:17:18.488Z,6.41
2023-01-13T23:19:45.238Z,6.52
2023-01-13T23:22:13.112Z,6.71
2023-01-13T23:24:39.754Z,6.69
2023-01-13T23:27:06.368Z,6.66
2023-01-13T23:29:32.948Z,6.69
2023-01-13T23:31:59.533Z,6.58
2023-01-13T23:34:26.244Z,6.72
2023-01-13T23:36:52.864Z,6.66
2023-01-13T23:39:19.461Z,6.57
2023-01-13T23:41:46.017Z,6.72
2023-01-13T23:44:12.594Z,6.68
2023-01-13T23:46:39.487Z,6.16
2023-01-13T23:49:06.182Z,6.56
2023-01-13T23:51:33.225Z,6.59
2023-01-13T23:54:00.022Z,6.14
2023-01-13T23:56:29.847Z,6.02
2023-01-13T23:58:57.408Z,6.65
